createdAt,value
2018-06-19T00:01:45.178Z,29.50
2018-06-19T00:04:13.709Z,30.00
2018-06-19T00:06:42.039Z,31.60
2018-06-19T00:09:10.487Z,32.60
2018-06-19T00:11:38.973Z,32.70
2018-06-19T00:14:07.466Z,33.30
2018-06-19T00:16:35.902Z,34.50
2018-06-19T00:19:04.318Z,36.20
2018-06-19T00:21:49.922Z,34.90
2018-06-19T00:24:18.384Z,35.40
2018-06-19T00:26:46.746Z,38.00
2018-06-19T00:29:15.056Z,38.00
2018-06-19T00:31:43.408Z,38.70
2018-06-19T00:34:11.705Z,39.30
2018-06-19T00:36:40.052Z,39.90
2018-06-19T00:39:09.909Z,40.40
2018-06-19T00:41:38.353Z,41.00
2018-06-19T00:44:06.975Z,44.00
2018-06-19T00:46:37.035Z,44.50
2018-06-19T00:49:05.680Z,45.00
2018-06-19T00:51:34.011Z,46.60
2018-06-19T00:56:41.864Z,48.40
2018-06-19T00:59:10.423Z,48.70
2018-06-19T01:04:06.990Z,50.20
2018-06-19T01:06:36.011Z,52.30
2018-06-19T01:09:06.508Z,52.90
2018-06-19T01:11:34.849Z,53.60
2018-06-19T01:14:03.200Z,56.40
2018-06-19T01:16:31.626Z,54.90
2018-06-19T01:21:28.122Z,56.80
2018-06-19T01:23:56.504Z,57.20
2018-06-19T01:26:25.212Z,59.70
2018-06-19T01:28:54.116Z,60.40
2018-06-19T01:31:22.510Z,63.70
2018-06-19T01:33:51.252Z,65.10
2018-06-19T01:36:19.804Z,66.30
2018-06-19T01:38:48.262Z,67.30
2018-06-19T01:41:16.566Z,69.50
2018-06-19T01:43:44.952Z,69.70
2018-06-19T01:46:13.409Z,69.70
2018-06-19T01:48:41.799Z,69.20
2018-06-19T01:51:10.109Z,71.60
2018-06-19T01:53:38.457Z,72.30
2018-06-19T01:56:06.780Z,72.60
2018-06-19T01:58:35.225Z,73.40
2018-06-19T02:01:03.569Z,75.20
2018-06-19T02:03:32.163Z,78.70
2018-06-19T02:06:00.799Z,78.70
2018-06-19T02:08:29.195Z,78.10
2018-06-19T02:10:59.451Z,78.60
2018-06-19T02:13:27.948Z,80.60
2018-06-19T02:15:56.332Z,83.90
2018-06-19T02:18:24.754Z,83.40
2018-06-19T02:20:53.354Z,85.70
2018-06-19T02:23:21.716Z,85.30
2018-06-19T02:25:50.168Z,87.50
2018-06-19T02:28:18.614Z,87.90
2018-06-19T02:30:47.105Z,90.20
2018-06-19T02:33:15.846Z,90.70
2018-06-19T02:35:44.175Z,92.20
2018-06-19T02:40:40.610Z,91.20
2018-06-19T02:45:37.140Z,95.60
2018-06-19T02:48:05.493Z,95.60
2018-06-19T02:50:33.908Z,97.10
2018-06-19T02:53:02.389Z,97.10
2018-06-19T02:55:30.876Z,98.20
2018-06-19T02:57:59.248Z,98.30
2018-06-19T03:00:27.662Z,98.10
2018-06-19T03:02:56.078Z,98.40
2018-06-19T03:07:52.454Z,99.90
2018-06-19T03:10:20.854Z,99.90
2018-06-19T03:12:49.350Z,99.90
2018-06-19T03:15:17.742Z,99.90
2018-06-19T03:20:14.165Z,99.90
2018-06-19T03:22:42.595Z,99.90
2018-06-19T03:30:07.460Z,99.90
2018-06-19T03:32:36.881Z,99.90
2018-06-19T03:35:05.674Z,99.90
2018-06-19T03:40:02.179Z,99.90
2018-06-19T03:42:30.579Z,99.90
2018-06-19T03:47:27.162Z,99.90
2018-06-19T03:49:55.503Z,99.90
2018-06-19T03:54:52.267Z,99.90
2018-06-19T03:57:20.684Z,99.90
2018-06-19T03:59:48.956Z,99.90
2018-06-19T04:02:17.329Z,99.90
2018-06-19T04:04:45.752Z,99.90
2018-06-19T04:07:14.201Z,99.90
2018-06-19T04:09:42.744Z,99.90
2018-06-19T04:12:11.319Z,99.90
2018-06-19T04:14:39.697Z,99.90
2018-06-19T04:17:08.213Z,99.90
2018-06-19T04:19:36.598Z,99.90
2018-06-19T04:22:05.156Z,99.90
2018-06-19T04:29:29.655Z,99.40
2018-06-19T04:31:58.085Z,99.60
2018-06-19T04:34:26.443Z,99.90
2018-06-19T04:36:54.917Z,99.90
2018-06-19T04:39:23.193Z,99.90
2018-06-19T04:41:51.498Z,99.90
2018-06-19T04:44:19.923Z,99.20
2018-06-19T04:46:48.303Z,99.90
2018-06-19T04:49:16.757Z,99.90
2018-06-19T04:51:45.103Z,99.90
2018-06-19T04:54:13.698Z,99.90
2018-06-19T04:56:42.292Z,99.90
2018-06-19T04:59:10.751Z,99.90
2018-06-19T05:01:39.632Z,99.90
2018-06-19T05:04:08.134Z,99.90
2018-06-19T05:06:36.711Z,99.90
2018-06-19T05:09:08.565Z,99.90
2018-06-19T05:11:36.932Z,99.90
2018-06-19T05:14:05.473Z,99.70
2018-06-19T05:16:33.890Z,99.90
2018-06-19T05:19:02.484Z,99.90
2018-06-19T05:21:30.966Z,99.90
2018-06-19T05:23:59.335Z,99.90
2018-06-19T05:26:27.720Z,99.40
2018-06-19T05:28:56.168Z,95.40
2018-06-19T05:31:24.669Z,94.60
2018-06-19T05:33:52.953Z,94.40
2018-06-19T05:36:21.443Z,90.50
2018-06-19T05:41:18.023Z,92.20
2018-06-19T05:43:46.644Z,88.60
2018-06-19T05:46:15.190Z,82.80
2018-06-19T05:48:43.535Z,84.30
2018-06-19T05:51:11.932Z,85.40
2018-06-19T05:53:40.364Z,82.10
2018-06-19T05:56:08.832Z,83.60
2018-06-19T05:58:37.155Z,77.10
2018-06-19T06:01:05.769Z,73.10
2018-06-19T06:03:34.325Z,67.90
2018-06-19T06:06:02.714Z,70.30
2018-06-19T06:08:31.222Z,62.80
2018-06-19T06:10:59.693Z,61.90
2018-06-19T06:13:28.178Z,63.20
2018-06-19T06:18:24.719Z,61.80
2018-06-19T06:20:53.378Z,63.60
2018-06-19T06:23:21.735Z,64.90
2018-06-19T06:25:50.103Z,62.10
2018-06-19T06:28:18.439Z,62.20
2018-06-19T06:30:47.009Z,58.50
2018-06-19T06:33:15.485Z,51.40
2018-06-19T06:35:43.882Z,52.70
2018-06-19T06:38:12.398Z,53.10
2018-06-19T06:40:40.826Z,43.60
2018-06-19T06:43:09.299Z,45.00
2018-06-19T06:45:37.792Z,45.10
2018-06-19T06:48:06.083Z,42.70
2018-06-19T06:50:34.495Z,33.80
2018-06-19T06:53:02.992Z,35.10
2018-06-19T06:55:31.414Z,30.60
2018-06-19T06:57:59.777Z,31.10
2018-06-19T07:00:28.367Z,29.70
2018-06-19T07:02:56.819Z,30.00
2018-06-19T07:05:25.157Z,29.50
2018-06-19T07:07:53.528Z,28.80
2018-06-19T07:10:22.103Z,27.90
2018-06-19T07:12:50.571Z,24.40
2018-06-19T07:15:19.008Z,21.50
2018-06-19T07:20:15.602Z,20.60
2018-06-19T07:22:43.879Z,19.00
2018-06-19T07:25:12.278Z,18.90
2018-06-19T07:27:40.594Z,17.10
2018-06-19T07:30:08.916Z,16.70
2018-06-19T07:32:37.195Z,17.10
2018-06-19T07:35:06.251Z,15.60
2018-06-19T07:37:34.668Z,15.60
2018-06-19T07:40:03.047Z,17.40
2018-06-19T07:42:31.520Z,18.10
2018-06-19T07:44:59.907Z,17.90
2018-06-19T07:47:28.288Z,16.80
2018-06-19T07:49:56.577Z,14.10
2018-06-19T07:52:24.985Z,16.90
2018-06-19T07:57:21.309Z,16.10
2018-06-19T07:59:49.654Z,20.00
2018-06-19T08:02:17.978Z,17.90
2018-06-19T08:04:46.418Z,15.90
2018-06-19T08:07:14.915Z,16.30
2018-06-19T08:09:43.194Z,12.30
2018-06-19T08:12:11.652Z,11.40
2018-06-19T08:14:40.003Z,10.90
2018-06-19T08:17:08.356Z,10.60
2018-06-19T08:19:36.630Z,12.60
2018-06-19T08:22:04.927Z,10.30
2018-06-19T08:24:33.314Z,11.70
2018-06-19T08:27:01.591Z,8.50
2018-06-19T08:31:58.154Z,7.40
2018-06-19T08:36:54.725Z,6.60
2018-06-19T08:39:23.091Z,6.80
2018-06-19T08:41:51.694Z,6.50
2018-06-19T08:44:26.990Z,5.70
2018-06-19T08:46:55.264Z,1.60
2018-06-19T08:49:23.658Z,2.90
2018-06-19T08:51:52.018Z,3.70
2018-06-19T08:54:20.359Z,4.90
2018-06-19T08:56:48.618Z,2.00
2018-06-19T08:59:16.988Z,4.10
2018-06-19T09:01:45.322Z,3.60
2018-06-19T09:04:13.636Z,1.00
2018-06-19T09:06:42.009Z,1.00
2018-06-19T09:09:11.464Z,1.00
2018-06-19T09:11:40.020Z,1.00
2018-06-19T09:16:36.866Z,1.00
2018-06-19T09:19:05.252Z,1.00
2018-06-19T09:24:01.651Z,1.00
2018-06-19T09:26:29.983Z,1.00
2018-06-19T09:33:54.739Z,1.00
2018-06-19T09:36:23.235Z,1.00
2018-06-19T09:41:19.633Z,1.00
2018-06-19T09:43:47.911Z,1.00
2018-06-19T09:46:16.174Z,1.00
2018-06-19T09:48:44.481Z,1.00
2018-06-19T09:53:41.041Z,1.00
2018-06-19T09:56:09.380Z,1.00
2018-06-19T09:58:38.002Z,1.00
2018-06-19T10:01:06.562Z,1.00
2018-06-19T10:03:34.999Z,1.00
2018-06-19T10:06:03.387Z,1.00
2018-06-19T10:08:31.890Z,1.00
2018-06-19T10:11:00.263Z,1.00
2018-06-19T10:13:28.818Z,1.00
2018-06-19T10:15:57.227Z,1.00
2018-06-19T10:18:25.562Z,1.00
2018-06-19T10:20:54.005Z,1.00
2018-06-19T10:23:22.486Z,1.00
2018-06-19T10:28:19.058Z,1.00
2018-06-19T10:30:47.397Z,1.00
2018-06-19T10:33:15.899Z,1.00
2018-06-19T10:35:44.277Z,1.00
2018-06-19T10:38:12.787Z,1.00
2018-06-19T10:40:41.164Z,1.00
2018-06-19T10:43:09.573Z,1.00
2018-06-19T10:45:37.814Z,1.00
2018-06-19T10:48:06.219Z,1.00
2018-06-19T10:50:34.582Z,1.00
2018-06-19T10:53:02.986Z,1.00
2018-06-19T10:55:31.375Z,1.00
2018-06-19T10:57:59.746Z,1.00
2018-06-19T11:02:56.377Z,1.00
2018-06-19T11:05:25.391Z,1.00
2018-06-19T11:07:53.730Z,1.00
2018-06-19T11:12:50.320Z,1.50
2018-06-19T11:15:19.523Z,1.00
2018-06-19T11:17:47.997Z,1.00
2018-06-19T11:20:16.329Z,1.00
2018-06-19T11:22:44.853Z,1.00
2018-06-19T11:25:13.198Z,1.00
2018-06-19T11:27:41.710Z,1.00
2018-06-19T11:30:09.590Z,1.00
2018-06-19T11:32:38.049Z,1.00
2018-06-19T11:35:06.668Z,1.00
2018-06-19T11:37:35.305Z,1.00
2018-06-19T11:42:31.805Z,1.00
2018-06-19T11:45:00.153Z,1.00
2018-06-19T11:47:28.657Z,1.00
2018-06-19T11:49:57.160Z,1.00
2018-06-19T11:52:25.651Z,1.00
2018-06-19T11:54:53.922Z,1.00
2018-06-19T11:57:22.265Z,1.00
2018-06-19T11:59:50.729Z,1.00
2018-06-19T12:04:47.512Z,1.00
2018-06-19T12:07:15.864Z,1.00
2018-06-19T12:09:44.256Z,1.00
2018-06-19T12:12:12.571Z,1.00
2018-06-19T12:14:42.086Z,1.00
2018-06-19T12:17:10.474Z,1.00
2018-06-19T12:19:38.855Z,1.00
2018-06-19T12:22:07.194Z,1.00
2018-06-19T12:24:35.594Z,1.00
2018-06-19T12:27:04.086Z,1.00
2018-06-19T12:29:32.565Z,1.00
2018-06-19T12:32:00.997Z,1.00
2018-06-19T12:36:57.798Z,1.00
2018-06-19T12:39:26.154Z,1.00
2018-06-19T12:41:54.590Z,1.00
2018-06-19T12:44:23.119Z,1.00
2018-06-19T12:46:51.603Z,1.00
2018-06-19T12:49:31.044Z,1.00
2018-06-19T12:52:10.824Z,1.00
2018-06-19T12:55:50.048Z,1.00
2018-06-19T12:58:18.366Z,1.00
2018-06-19T13:00:46.849Z,1.00
2018-06-19T13:03:26.691Z,1.00
2018-06-19T13:06:07.337Z,1.00
2018-06-19T13:08:35.986Z,1.00
2018-06-19T13:11:04.847Z,1.00
2018-06-19T13:13:44.738Z,1.00
2018-06-19T13:16:24.397Z,1.00
2018-06-19T13:19:04.143Z,1.00
2018-06-19T13:21:32.623Z,1.00
2018-06-19T13:24:01.090Z,1.00
2018-06-19T13:26:29.560Z,1.00
2018-06-19T13:30:07.749Z,1.00
2018-06-19T13:32:36.746Z,1.00
2018-06-19T13:37:33.139Z,1.00
2018-06-19T13:41:12.021Z,1.00
2018-06-19T13:43:51.606Z,1.00
2018-06-19T13:46:19.887Z,1.00
2018-06-19T13:51:16.551Z,1.00
2018-06-19T13:53:45.362Z,1.00
2018-06-19T13:57:40.075Z,1.00
2018-06-19T14:00:13.157Z,1.00
2018-06-19T14:02:41.676Z,1.00
2018-06-19T14:05:10.882Z,1.00
2018-06-19T14:07:50.846Z,1.00
2018-06-19T14:10:30.702Z,1.00
2018-06-19T14:12:59.683Z,1.00
2018-06-19T14:15:29.224Z,1.00
2018-06-19T14:17:57.878Z,1.00
2018-06-19T14:20:26.248Z,1.00
2018-06-19T14:22:54.605Z,1.00
2018-06-19T14:25:23.374Z,1.00
2018-06-19T14:27:52.070Z,1.00
2018-06-19T14:30:20.385Z,1.00
2018-06-19T14:32:49.260Z,1.00
2018-06-19T14:35:17.715Z,1.00
2018-06-19T14:37:46.052Z,1.00
2018-06-19T14:40:14.898Z,1.00
2018-06-19T14:42:43.228Z,1.00
2018-06-19T14:45:12.019Z,1.00
2018-06-19T14:47:40.597Z,1.00
2018-06-19T14:50:09.539Z,1.00
2018-06-19T14:52:37.989Z,1.00
2018-06-19T14:55:07.085Z,1.00
2018-06-19T14:57:35.558Z,1.00
2018-06-19T15:00:05.816Z,1.00
2018-06-19T15:02:34.294Z,1.00
2018-06-19T15:05:02.684Z,1.00
2018-06-19T15:07:36.380Z,1.00
2018-06-19T15:10:06.088Z,1.00
2018-06-19T15:12:34.440Z,1.00
2018-06-19T15:15:03.208Z,1.00
2018-06-19T15:17:31.689Z,1.00
2018-06-19T15:22:28.257Z,1.00
2018-06-19T15:24:56.843Z,1.00
2018-06-19T15:27:25.254Z,1.00
2018-06-19T15:29:53.634Z,1.00
2018-06-19T15:34:50.662Z,1.00
2018-06-19T15:37:19.079Z,1.00
2018-06-19T15:39:47.453Z,1.00
2018-06-19T15:42:16.014Z,1.00
2018-06-19T15:44:44.422Z,1.00
2018-06-19T15:47:12.697Z,1.00
2018-06-19T15:49:41.230Z,1.00
2018-06-19T15:52:09.764Z,1.00
2018-06-19T15:54:38.259Z,1.00
2018-06-19T15:57:06.751Z,1.00
2018-06-19T15:59:35.156Z,1.00
2018-06-19T16:02:03.478Z,1.00
2018-06-19T16:07:00.063Z,1.00
2018-06-19T16:09:28.515Z,1.00
2018-06-19T16:11:58.070Z,1.00
2018-06-19T16:14:27.591Z,1.00
2018-06-19T16:16:56.260Z,1.00
2018-06-19T16:19:24.714Z,1.00
2018-06-19T16:21:53.283Z,1.00
2018-06-19T16:24:21.839Z,1.00
2018-06-19T16:26:50.345Z,1.00
2018-06-19T16:29:18.795Z,1.00
2018-06-19T16:31:47.284Z,1.00
2018-06-19T16:34:15.662Z,1.00
2018-06-19T16:36:50.276Z,1.00
2018-06-19T16:39:18.573Z,1.00
2018-06-19T16:41:46.947Z,1.00
2018-06-19T16:44:15.470Z,1.00
2018-06-19T16:46:44.002Z,1.00
2018-06-19T16:49:12.529Z,1.00
2018-06-19T16:51:40.896Z,1.00
2018-06-19T16:54:09.446Z,1.00
2018-06-19T16:56:38.240Z,1.00
2018-06-19T16:59:06.740Z,1.00
2018-06-19T17:01:35.292Z,1.00
2018-06-19T17:04:03.608Z,1.00
2018-06-19T17:06:33.636Z,1.00
2018-06-19T17:09:02.273Z,1.00
2018-06-19T17:11:30.634Z,1.00
2018-06-19T17:13:58.999Z,1.00
2018-06-19T17:16:27.584Z,1.00
2018-06-19T17:18:55.960Z,1.00
2018-06-19T17:21:24.397Z,1.00
2018-06-19T17:23:53.126Z,1.00
2018-06-19T17:26:22.708Z,1.00
2018-06-19T17:28:51.469Z,1.00
2018-06-19T17:31:21.046Z,1.00
2018-06-19T17:33:49.477Z,1.00
2018-06-19T17:36:18.359Z,1.00
2018-06-19T17:38:46.827Z,1.00
2018-06-19T17:41:15.943Z,1.00
2018-06-19T17:43:44.494Z,1.00
2018-06-19T17:48:40.963Z,1.00
2018-06-19T17:51:09.327Z,1.00
2018-06-19T17:53:37.754Z,1.00
2018-06-19T17:56:06.293Z,1.00
2018-06-19T17:58:34.775Z,1.00
2018-06-19T18:01:04.259Z,1.00
2018-06-19T18:03:32.741Z,1.00
2018-06-19T18:06:01.147Z,1.00
2018-06-19T18:08:29.581Z,1.00
2018-06-19T18:10:58.024Z,1.00
2018-06-19T18:13:26.684Z,1.00
2018-06-19T18:15:55.226Z,1.00
2018-06-19T18:18:23.722Z,1.00
2018-06-19T18:20:52.351Z,1.00
2018-06-19T18:23:20.944Z,1.00
2018-06-19T18:25:49.606Z,1.00
2018-06-19T18:28:17.956Z,1.00
2018-06-19T18:30:46.466Z,1.00
2018-06-19T18:33:15.092Z,1.00
2018-06-19T18:35:43.506Z,1.00
2018-06-19T18:38:12.082Z,1.00
2018-06-19T18:40:40.490Z,1.00
2018-06-19T18:43:09.072Z,1.00
2018-06-19T18:45:37.877Z,1.00
2018-06-19T18:48:06.393Z,1.00
2018-06-19T18:50:34.850Z,1.00
2018-06-19T18:53:03.401Z,1.00
2018-06-19T18:55:32.009Z,1.00
2018-06-19T18:58:00.381Z,1.00
2018-06-19T19:00:28.917Z,1.00
2018-06-19T19:02:57.414Z,1.00
2018-06-19T19:05:25.833Z,1.00
2018-06-19T19:07:54.522Z,1.00
2018-06-19T19:10:28.216Z,1.00
2018-06-19T19:12:56.775Z,1.00
2018-06-19T19:15:30.769Z,1.00
2018-06-19T19:18:04.512Z,1.00
2018-06-19T19:20:32.936Z,2.10
2018-06-19T19:23:01.449Z,3.40
2018-06-19T19:25:29.843Z,4.30
2018-06-19T19:28:03.728Z,4.50
2018-06-19T19:30:32.107Z,6.20
2018-06-19T19:33:00.511Z,8.20
2018-06-19T19:35:28.990Z,8.20
2018-06-19T19:38:02.590Z,8.70
2018-06-19T19:40:31.193Z,10.00
2018-06-19T19:42:59.749Z,10.40
2018-06-19T19:48:01.915Z,8.90
2018-06-19T19:50:37.133Z,9.40
2018-06-19T19:53:05.547Z,9.80
2018-06-19T19:55:33.928Z,11.10
2018-06-19T19:58:07.611Z,11.70
2018-06-19T20:00:36.108Z,11.60
2018-06-19T20:03:04.561Z,12.60
2018-06-19T20:05:33.093Z,11.50
2018-06-19T20:08:01.436Z,11.90
2018-06-19T20:10:29.838Z,13.20
2018-06-19T20:12:58.133Z,14.20
2018-06-19T20:15:26.483Z,14.30
2018-06-19T20:17:54.769Z,15.30
2018-06-19T20:20:23.119Z,16.30
2018-06-19T20:22:51.475Z,17.60
2018-06-19T20:25:19.891Z,18.30
2018-06-19T20:27:48.198Z,19.60
2018-06-19T20:30:16.477Z,20.00
2018-06-19T20:32:44.893Z,21.70
2018-06-19T20:35:13.302Z,22.00
2018-06-19T20:37:41.778Z,23.00
2018-06-19T20:40:10.092Z,23.50
2018-06-19T20:42:38.935Z,23.80
2018-06-19T20:45:07.238Z,24.50
2018-06-19T20:47:35.746Z,26.50
2018-06-19T20:52:33.635Z,27.30
2018-06-19T20:55:02.157Z,27.70
2018-06-19T20:57:30.599Z,28.40
2018-06-19T20:59:59.109Z,28.30
2018-06-19T21:02:27.616Z,28.40
2018-06-19T21:04:55.903Z,27.90
2018-06-19T21:07:24.267Z,28.10
2018-06-19T21:12:21.656Z,29.00
2018-06-19T21:14:50.206Z,29.80
2018-06-19T21:17:18.891Z,29.60
2018-06-19T21:19:47.778Z,30.00
2018-06-19T21:22:16.402Z,30.00
2018-06-19T21:24:44.843Z,30.60
2018-06-19T21:29:41.337Z,29.40
2018-06-19T21:32:09.786Z,30.00
2018-06-19T21:34:38.278Z,30.40
2018-06-19T21:37:06.680Z,30.10
2018-06-19T21:39:35.123Z,29.80
2018-06-19T21:42:03.422Z,30.70
2018-06-19T21:44:31.868Z,32.60
2018-06-19T21:47:00.283Z,33.20
2018-06-19T21:49:28.607Z,32.90
2018-06-19T21:51:56.869Z,34.60
2018-06-19T21:54:25.489Z,34.40
2018-06-19T21:56:53.867Z,35.00
2018-06-19T21:59:22.290Z,34.90
2018-06-19T22:01:50.633Z,34.00
2018-06-19T22:04:19.230Z,37.20
2018-06-19T22:06:47.697Z,38.50
2018-06-19T22:09:16.291Z,38.90
2018-06-19T22:11:44.909Z,39.50
2018-06-19T22:14:13.359Z,39.50
2018-06-19T22:16:41.946Z,38.90
2018-06-19T22:19:10.516Z,38.80
2018-06-19T22:21:38.894Z,38.80
2018-06-19T22:24:07.278Z,39.50
2018-06-19T22:26:35.662Z,40.40
2018-06-19T22:29:04.305Z,39.70
2018-06-19T22:31:32.636Z,39.30
2018-06-19T22:34:00.962Z,40.80
2018-06-19T22:36:29.486Z,41.00
2018-06-19T22:38:57.945Z,39.90
2018-06-19T22:41:26.333Z,38.90
2018-06-19T22:43:54.737Z,38.10
2018-06-19T22:46:23.302Z,39.20
2018-06-19T22:48:51.718Z,40.30
2018-06-19T22:51:20.116Z,38.60
2018-06-19T22:53:48.803Z,37.60
2018-06-19T22:56:17.211Z,37.20
2018-06-19T22:58:45.866Z,36.70
2018-06-19T23:01:14.499Z,35.10
2018-06-19T23:03:43.041Z,34.90
2018-06-19T23:06:11.639Z,32.70
2018-06-19T23:08:40.043Z,33.30
2018-06-19T23:11:08.586Z,34.20
2018-06-19T23:13:36.911Z,34.70
2018-06-19T23:16:05.269Z,36.40
2018-06-19T23:18:33.751Z,35.00
2018-06-19T23:21:02.079Z,34.90
2018-06-19T23:23:30.455Z,31.30
2018-06-19T23:25:59.038Z,31.80
2018-06-19T23:28:27.623Z,29.10
2018-06-19T23:30:55.973Z,30.00
2018-06-19T23:33:24.741Z,31.80
2018-06-19T23:38:21.366Z,30.90
2018-06-19T23:40:49.961Z,30.00
2018-06-19T23:43:18.513Z,29.40
2018-06-19T23:45:46.946Z,29.80
2018-06-19T23:48:15.452Z,28.60
2018-06-19T23:50:43.803Z,30.00
2018-06-19T23:53:12.287Z,29.50
2018-06-19T23:55:40.816Z,28.90
2018-06-19T23:58:09.126Z,28.40
